createdAt,value
2019-05-02T00:00:14.330Z,0.00
2019-05-02T00:01:14.362Z,0.00
2019-05-02T00:02:14.387Z,0.00
2019-05-02T00:03:14.416Z,0.00
2019-05-02T00:04:20.021Z,0.00
2019-05-02T00:05:14.471Z,0.00
2019-05-02T00:06:14.500Z,0.00
2019-05-02T00:07:20.224Z,0.00
2019-05-02T00:08:14.559Z,0.00
2019-05-02T00:09:14.586Z,0.00
2019-05-02T00:10:14.615Z,0.00
2019-05-02T00:11:14.643Z,0.00
2019-05-02T00:12:14.674Z,0.00
2019-05-02T00:13:14.702Z,0.00
2019-05-02T00:14:14.729Z,0.00
2019-05-02T00:15:14.758Z,0.00
2019-05-02T00:16:15.468Z,0.00
2019-05-02T00:17:14.815Z,0.00
2019-05-02T00:18:14.844Z,0.00
2019-05-02T00:19:15.389Z,0.00
2019-05-02T00:20:14.901Z,0.00
2019-05-02T00:21:14.930Z,0.00
2019-05-02T00:22:17.169Z,0.00
2019-05-02T00:23:14.986Z,0.00
2019-05-02T00:24:15.017Z,0.00
2019-05-02T00:25:15.897Z,0.00
2019-05-02T00:26:15.072Z,0.00
2019-05-02T00:27:15.101Z,0.00
2019-05-02T00:28:15.129Z,0.00
2019-05-02T00:29:18.983Z,0.00
2019-05-02T00:30:15.186Z,0.00
2019-05-02T00:31:15.216Z,0.00
2019-05-02T00:32:18.346Z,0.00
2019-05-02T00:33:15.271Z,0.00
2019-05-02T00:34:15.301Z,0.00
2019-05-02T00:35:15.332Z,0.00
2019-05-02T00:36:15.359Z,0.00
2019-05-02T00:37:18.776Z,0.00
2019-05-02T00:38:15.414Z,0.00
2019-05-02T00:39:15.446Z,0.00
2019-05-02T00:40:15.479Z,0.00
2019-05-02T00:41:15.527Z,0.00
2019-05-02T00:42:17.654Z,0.00
2019-05-02T00:43:15.557Z,0.00
2019-05-02T00:44:15.586Z,0.00
2019-05-02T00:45:18.661Z,0.00
2019-05-02T00:46:15.642Z,0.00
2019-05-02T00:47:15.670Z,0.00
2019-05-02T00:48:19.278Z,0.00
2019-05-02T00:49:15.727Z,0.00
2019-05-02T00:50:15.754Z,0.00
2019-05-02T00:51:15.783Z,0.00
2019-05-02T00:52:15.816Z,0.00
2019-05-02T00:53:15.840Z,0.00
2019-05-02T00:54:19.114Z,0.00
2019-05-02T00:55:15.898Z,0.00
2019-05-02T00:56:15.926Z,0.00
2019-05-02T00:57:20.030Z,0.00
2019-05-02T00:58:15.983Z,0.00
2019-05-02T00:59:16.012Z,0.00
2019-05-02T01:00:18.569Z,0.00
2019-05-02T01:01:16.067Z,0.00
2019-05-02T01:02:16.094Z,0.00
2019-05-02T01:03:17.657Z,0.00
2019-05-02T01:04:16.152Z,0.00
2019-05-02T01:05:16.179Z,0.00
2019-05-02T01:06:16.208Z,0.00
2019-05-02T01:07:20.448Z,0.00
2019-05-02T01:08:16.267Z,0.00
2019-05-02T01:09:16.293Z,0.00
2019-05-02T01:10:17.293Z,0.00
2019-05-02T01:11:16.352Z,0.00
2019-05-02T01:12:26.276Z,0.00
2019-05-02T01:13:19.118Z,0.00
2019-05-02T01:14:16.435Z,0.00
2019-05-02T01:15:16.464Z,0.00
2019-05-02T01:16:19.187Z,0.00
2019-05-02T01:17:16.519Z,0.00
2019-05-02T01:18:16.548Z,0.00
2019-05-02T01:19:17.261Z,0.00
2019-05-02T01:20:16.605Z,0.00
2019-05-02T01:21:16.635Z,0.00
2019-05-02T01:22:17.310Z,0.00
2019-05-02T01:23:16.691Z,0.00
2019-05-02T01:24:16.722Z,0.00
2019-05-02T01:25:17.273Z,0.00
2019-05-02T01:26:16.775Z,0.00
2019-05-02T01:27:16.803Z,0.00
2019-05-02T01:28:17.540Z,0.00
2019-05-02T01:29:16.858Z,0.00
2019-05-02T01:30:16.889Z,0.00
2019-05-02T01:31:18.311Z,0.00
2019-05-02T01:32:16.945Z,0.00
2019-05-02T01:33:16.972Z,0.00
2019-05-02T01:34:17.966Z,0.00
2019-05-02T01:35:17.029Z,0.00
2019-05-02T01:36:17.057Z,0.00
2019-05-02T01:37:20.727Z,0.00
2019-05-02T01:38:17.113Z,0.00
2019-05-02T01:39:17.166Z,0.00
2019-05-02T01:40:17.753Z,0.00
2019-05-02T01:41:17.199Z,0.00
2019-05-02T01:42:17.227Z,0.00
2019-05-02T01:43:19.822Z,0.00
2019-05-02T01:44:17.282Z,0.00
2019-05-02T01:45:17.309Z,0.00
2019-05-02T01:46:22.170Z,0.00
2019-05-02T01:47:17.367Z,0.00
2019-05-02T01:48:17.395Z,0.00
2019-05-02T01:49:21.900Z,0.00
2019-05-02T01:50:17.451Z,0.00
2019-05-02T01:51:17.482Z,0.00
2019-05-02T01:52:18.858Z,0.00
2019-05-02T01:53:17.538Z,0.00
2019-05-02T01:54:17.563Z,0.00
2019-05-02T01:55:21.159Z,0.00
2019-05-02T01:56:17.620Z,0.00
2019-05-02T01:57:17.649Z,0.00
2019-05-02T01:58:20.719Z,0.00
2019-05-02T01:59:17.705Z,0.00
2019-05-02T02:00:17.937Z,0.00
2019-05-02T02:01:21.416Z,0.00
2019-05-02T02:02:17.815Z,0.00
2019-05-02T02:03:17.814Z,0.00
2019-05-02T02:04:21.006Z,0.00
2019-05-02T02:05:17.871Z,0.00
2019-05-02T02:06:17.901Z,0.00
2019-05-02T02:07:19.952Z,0.00
2019-05-02T02:08:17.955Z,0.00
2019-05-02T02:09:17.982Z,0.00
2019-05-02T02:10:19.856Z,0.00
2019-05-02T02:11:18.065Z,0.00
2019-05-02T02:12:18.066Z,0.00
2019-05-02T02:13:18.095Z,0.00
2019-05-02T02:14:18.720Z,0.00
2019-05-02T02:15:18.151Z,0.00
2019-05-02T02:16:18.178Z,0.00
2019-05-02T02:17:18.228Z,0.00
2019-05-02T02:18:22.084Z,0.00
2019-05-02T02:19:18.262Z,0.00
2019-05-02T02:21:20.053Z,0.00
2019-05-02T02:22:18.571Z,0.00
2019-05-02T02:25:44.242Z,0.00
2019-05-02T02:26:48.139Z,0.00
2019-05-02T02:27:44.303Z,0.00
2019-05-02T02:28:45.061Z,0.00
2019-05-02T02:29:45.380Z,0.00
2019-05-02T02:31:26.929Z,0.00
2019-05-02T02:32:28.652Z,0.00
2019-05-02T02:33:26.984Z,0.00
2019-05-02T02:34:29.752Z,0.00
2019-05-02T02:35:27.042Z,0.00
2019-05-02T02:36:31.758Z,0.00
2019-05-02T02:37:27.092Z,0.00
2019-05-02T02:38:33.734Z,0.00
2019-05-02T02:39:27.170Z,0.00
2019-05-02T02:40:32.742Z,0.00
2019-05-02T02:41:27.205Z,0.00
2019-05-02T02:42:31.826Z,0.00
2019-05-02T02:43:33.943Z,0.00
2019-05-02T02:44:27.290Z,0.00
2019-05-02T02:45:27.316Z,0.00
2019-05-02T02:46:30.889Z,0.00
2019-05-02T02:47:27.373Z,0.00
2019-05-02T02:48:27.399Z,0.00
2019-05-02T02:49:27.426Z,0.00
2019-05-02T02:50:27.455Z,0.00
2019-05-02T02:51:27.482Z,0.00
2019-05-02T02:52:27.509Z,0.00
2019-05-02T02:53:27.539Z,0.00
2019-05-02T02:54:27.566Z,0.00
2019-05-02T02:55:27.594Z,0.00
2019-05-02T02:56:27.622Z,0.00
2019-05-02T02:57:28.477Z,0.00
2019-05-02T02:58:27.676Z,0.00
2019-05-02T02:59:28.278Z,0.00
2019-05-02T03:00:27.733Z,0.00
2019-05-02T03:01:29.287Z,0.00
2019-05-02T03:02:27.786Z,0.00
2019-05-02T03:03:30.175Z,0.00
2019-05-02T03:04:27.843Z,0.00
2019-05-02T03:05:27.928Z,0.00
2019-05-02T03:06:27.899Z,0.00
2019-05-02T03:07:28.890Z,0.00
2019-05-02T03:08:27.955Z,0.00
2019-05-02T03:09:29.045Z,0.00
2019-05-02T03:10:28.011Z,0.00
2019-05-02T03:11:28.038Z,0.00
2019-05-02T03:12:28.065Z,0.00
2019-05-02T03:13:28.093Z,0.00
2019-05-02T03:14:28.131Z,0.00
2019-05-02T03:15:29.701Z,0.00
2019-05-02T03:16:28.174Z,0.00
2019-05-02T03:17:28.962Z,0.00
2019-05-02T03:18:39.813Z,0.00
2019-05-02T03:19:28.259Z,0.00
2019-05-02T03:20:28.286Z,0.00
2019-05-02T03:21:28.315Z,0.00
2019-05-02T03:22:28.342Z,0.00
2019-05-02T03:23:31.028Z,0.00
2019-05-02T03:24:28.404Z,0.00
2019-05-02T03:25:49.261Z,0.00
2019-05-02T03:26:28.451Z,0.00
2019-05-02T03:27:29.929Z,0.00
2019-05-02T03:28:28.507Z,0.00
2019-05-02T03:29:39.160Z,0.00
2019-05-02T03:30:35.349Z,0.00
2019-05-02T03:31:30.855Z,0.00
2019-05-02T03:32:34.412Z,0.00
2019-05-02T03:33:28.698Z,0.00
2019-05-02T03:34:45.376Z,0.00
2019-05-02T03:35:41.301Z,0.00
2019-05-02T03:36:35.545Z,0.00
2019-05-02T03:37:28.765Z,4.00
2019-05-02T03:38:32.496Z,4.00
2019-05-02T03:39:28.812Z,0.00
2019-05-02T03:40:32.257Z,4.00
2019-05-02T03:41:28.866Z,4.00
2019-05-02T03:42:28.894Z,8.00
2019-05-02T03:43:28.924Z,4.00
2019-05-02T03:44:28.969Z,8.00
2019-05-02T03:45:32.425Z,8.00
2019-05-02T03:46:29.003Z,8.00
2019-05-02T03:47:29.037Z,8.00
2019-05-02T03:48:29.059Z,12.00
2019-05-02T03:49:29.087Z,16.00
2019-05-02T03:50:32.553Z,20.00
2019-05-02T03:51:29.140Z,20.00
2019-05-02T03:52:29.169Z,24.00
2019-05-02T03:53:29.197Z,28.00
2019-05-02T03:54:29.224Z,36.00
2019-05-02T03:55:31.456Z,40.00
2019-05-02T03:56:29.280Z,44.00
2019-05-02T03:57:33.551Z,52.00
2019-05-02T03:58:29.333Z,60.00
2019-05-02T03:59:38.995Z,72.00
2019-05-02T04:00:29.443Z,84.00
2019-05-02T04:01:34.596Z,96.00
2019-05-02T04:02:29.444Z,108.00
2019-05-02T04:03:33.920Z,124.00
2019-05-02T04:04:29.501Z,140.00
2019-05-02T04:05:33.910Z,156.00
2019-05-02T04:06:29.554Z,176.00
2019-05-02T04:07:39.762Z,196.00
2019-05-02T04:08:29.611Z,220.00
2019-05-02T04:09:32.026Z,248.00
2019-05-02T04:10:29.668Z,272.00
2019-05-02T04:11:38.057Z,300.00
2019-05-02T04:12:32.673Z,328.00
2019-05-02T04:13:30.136Z,360.00
2019-05-02T04:14:37.891Z,388.00
2019-05-02T04:15:35.254Z,424.00
2019-05-02T04:16:29.845Z,456.00
2019-05-02T04:17:35.254Z,496.00
2019-05-02T04:18:29.890Z,532.00
2019-05-02T04:19:34.865Z,572.00
2019-05-02T04:20:29.941Z,612.00
2019-05-02T04:21:29.970Z,656.00
2019-05-02T04:22:29.995Z,696.00
2019-05-02T04:23:30.025Z,744.00
2019-05-02T04:24:30.054Z,788.00
2019-05-02T04:25:33.871Z,836.00
2019-05-02T04:26:30.106Z,864.00
2019-05-02T04:27:34.027Z,912.00
2019-05-02T04:28:30.160Z,960.00
2019-05-02T04:29:31.080Z,1012.00
2019-05-02T04:30:30.217Z,1056.00
2019-05-02T04:31:32.287Z,1104.00
2019-05-02T04:32:30.273Z,1152.00
2019-05-02T04:33:34.630Z,1196.00
2019-05-02T04:34:30.332Z,1236.00
2019-05-02T04:35:34.786Z,1284.00
2019-05-02T04:36:30.386Z,1332.00
2019-05-02T04:37:34.417Z,1384.00
2019-05-02T04:38:38.716Z,1424.00
2019-05-02T04:39:30.474Z,1472.00
2019-05-02T04:40:35.130Z,1508.00
2019-05-02T04:41:33.967Z,1548.00
2019-05-02T04:42:30.550Z,1588.00
2019-05-02T04:43:30.601Z,1632.00
2019-05-02T04:44:40.984Z,1672.00
2019-05-02T04:45:50.935Z,1716.00
2019-05-02T04:46:31.344Z,1760.00
2019-05-02T04:47:30.689Z,1804.00
2019-05-02T04:48:34.623Z,1852.00
2019-05-02T04:49:35.616Z,1900.00
2019-05-02T04:50:30.770Z,1944.00
2019-05-02T04:51:32.113Z,1984.00
2019-05-02T04:52:30.829Z,2028.00
2019-05-02T04:53:36.764Z,2072.00
2019-05-02T04:54:32.588Z,2124.00
2019-05-02T04:55:33.443Z,2172.00
2019-05-02T04:56:30.941Z,2228.00
2019-05-02T04:57:36.237Z,2272.00
2019-05-02T04:58:34.771Z,2316.00
2019-05-02T04:59:33.252Z,2368.00
2019-05-02T05:00:31.056Z,2412.00
2019-05-02T05:01:42.231Z,2452.00
2019-05-02T05:02:36.314Z,2512.00
2019-05-02T05:03:31.133Z,2596.00
2019-05-02T05:04:33.463Z,2652.00
2019-05-02T05:05:31.486Z,2736.00
2019-05-02T05:06:31.216Z,2796.00
2019-05-02T05:07:41.088Z,2848.00
2019-05-02T05:08:31.998Z,2880.00
2019-05-02T05:09:31.300Z,2920.00
2019-05-02T05:10:40.313Z,2968.00
2019-05-02T05:11:31.360Z,2992.00
2019-05-02T05:12:32.466Z,3040.00
2019-05-02T05:13:31.411Z,3072.00
2019-05-02T05:14:39.236Z,3104.00
2019-05-02T05:15:40.199Z,3140.00
2019-05-02T05:16:31.507Z,3172.00
2019-05-02T05:17:34.030Z,3204.00
2019-05-02T05:18:31.550Z,3240.00
2019-05-02T05:19:32.849Z,3276.00
2019-05-02T05:20:31.659Z,3312.00
2019-05-02T05:21:31.637Z,3340.00
2019-05-02T05:22:36.456Z,3372.00
2019-05-02T05:23:31.692Z,3400.00
2019-05-02T05:24:32.834Z,3480.00
2019-05-02T05:25:31.749Z,3560.00
2019-05-02T05:26:33.834Z,3624.00
2019-05-02T05:27:31.804Z,3672.00
2019-05-02T05:28:35.078Z,3728.00
2019-05-02T05:29:31.861Z,3776.00
2019-05-02T05:30:31.890Z,3820.00
2019-05-02T05:31:31.918Z,3868.00
2019-05-02T05:32:31.944Z,3944.00
2019-05-02T05:33:31.974Z,3996.00
2019-05-02T05:34:32.722Z,4060.00
2019-05-02T05:35:32.031Z,4132.00
2019-05-02T05:36:34.216Z,4204.00
2019-05-02T05:37:32.087Z,4284.00
2019-05-02T05:38:34.382Z,4372.00
2019-05-02T05:39:32.145Z,4444.00
2019-05-02T05:40:32.364Z,4520.00
2019-05-02T05:41:32.201Z,4600.00
2019-05-02T05:42:33.455Z,4668.00
2019-05-02T05:43:32.257Z,4740.00
2019-05-02T05:44:32.827Z,4804.00
2019-05-02T05:45:32.314Z,4868.00
2019-05-02T05:46:33.386Z,4932.00
2019-05-02T05:47:32.388Z,4984.00
2019-05-02T05:48:39.126Z,5012.00
2019-05-02T05:49:32.430Z,5060.00
2019-05-02T05:50:37.667Z,5104.00
2019-05-02T05:51:32.487Z,5136.00
2019-05-02T05:52:32.931Z,5172.00
2019-05-02T05:53:32.546Z,5200.00
2019-05-02T05:54:32.997Z,5240.00
2019-05-02T05:55:32.601Z,5276.00
2019-05-02T05:56:39.779Z,5312.00
2019-05-02T05:57:32.658Z,5324.00
2019-05-02T05:58:32.688Z,5364.00
2019-05-02T05:59:32.730Z,5404.00
2019-05-02T06:00:32.749Z,5440.00
2019-05-02T06:01:35.779Z,5484.00
2019-05-02T06:02:50.092Z,5496.00
2019-05-02T06:03:34.002Z,5528.00
2019-05-02T06:04:33.397Z,5560.00
2019-05-02T06:06:32.922Z,5532.00
2019-05-02T06:07:38.007Z,5468.00
2019-05-02T06:08:34.397Z,5496.00
2019-05-02T06:09:33.235Z,5416.00
2019-05-02T06:11:20.007Z,5324.00
2019-05-02T06:12:18.645Z,5264.00
2019-05-02T06:13:15.667Z,5556.00
2019-05-02T06:14:19.881Z,5756.00
2019-05-02T06:15:15.726Z,5796.00
2019-05-02T06:16:16.696Z,5804.00
2019-05-02T06:17:15.764Z,5864.00
2019-05-02T06:18:15.795Z,5748.00
2019-05-02T06:19:17.907Z,5856.00
2019-05-02T06:20:15.848Z,5916.00
2019-05-02T06:21:17.145Z,5904.00
2019-05-02T06:22:22.431Z,5892.00
2019-05-02T06:23:15.937Z,5864.00
2019-05-02T06:24:17.088Z,5836.00
2019-05-02T06:25:16.002Z,5820.00
2019-05-02T06:26:16.108Z,5832.00
2019-05-02T06:27:16.058Z,5724.00
2019-05-02T06:28:16.089Z,5400.00
2019-05-02T06:29:18.705Z,5568.00
2019-05-02T06:30:16.147Z,5792.00
2019-05-02T06:31:17.143Z,5828.00
2019-05-02T06:32:19.369Z,5748.00
2019-05-02T06:33:16.238Z,5684.00
2019-05-02T06:34:16.267Z,5676.00
2019-05-02T06:35:17.162Z,5596.00
2019-05-02T06:36:16.328Z,5656.00
2019-05-02T06:37:16.357Z,5744.00
2019-05-02T06:38:16.386Z,6000.00
2019-05-02T06:39:16.431Z,6296.00
2019-05-02T06:40:16.449Z,6640.00
2019-05-02T06:41:21.023Z,6820.00
2019-05-02T06:42:16.510Z,7272.00
2019-05-02T06:43:16.565Z,7440.00
2019-05-02T06:44:18.606Z,7756.00
2019-05-02T06:45:16.626Z,7824.00
2019-05-02T06:46:21.538Z,7852.00
2019-05-02T06:47:16.663Z,7740.00
2019-05-02T06:48:17.784Z,7648.00
2019-05-02T06:49:16.722Z,7500.00
2019-05-02T06:50:16.753Z,7376.00
2019-05-02T06:51:19.627Z,7316.00
2019-05-02T06:52:16.839Z,7152.00
2019-05-02T06:53:16.999Z,7220.00
2019-05-02T06:54:17.955Z,7232.00
2019-05-02T06:55:16.926Z,7360.00
2019-05-02T06:56:16.957Z,7484.00
2019-05-02T06:57:19.160Z,7692.00
2019-05-02T06:58:17.001Z,7732.00
2019-05-02T06:59:18.465Z,7944.00
2019-05-02T07:00:17.062Z,8176.00
2019-05-02T07:01:21.449Z,8468.00
2019-05-02T07:02:17.125Z,8844.00
2019-05-02T07:03:17.159Z,9108.00
2019-05-02T07:04:22.250Z,9260.00
2019-05-02T07:05:17.219Z,9476.00
2019-05-02T07:06:17.498Z,9804.00
2019-05-02T07:07:17.313Z,10044.00
2019-05-02T07:08:17.359Z,10104.00
2019-05-02T07:09:17.345Z,10204.00
2019-05-02T07:10:20.282Z,10200.00
2019-05-02T07:11:17.406Z,10500.00
2019-05-02T07:12:17.441Z,10732.00
2019-05-02T07:13:17.471Z,10920.00
2019-05-02T07:14:18.559Z,11256.00
2019-05-02T07:15:17.557Z,11316.00
2019-05-02T07:16:37.308Z,11568.00
2019-05-02T07:17:17.599Z,11664.00
2019-05-02T07:18:17.630Z,11968.00
2019-05-02T07:19:21.798Z,11968.00
2019-05-02T07:20:17.695Z,12128.00
2019-05-02T07:21:22.916Z,12124.00
2019-05-02T07:22:17.758Z,12028.00
2019-05-02T07:23:18.398Z,11868.00
2019-05-02T07:24:17.823Z,11636.00
2019-05-02T07:25:17.855Z,11452.00
2019-05-02T07:26:21.350Z,11348.00
2019-05-02T07:27:17.921Z,11248.00
2019-05-02T07:28:17.955Z,11240.00
2019-05-02T07:29:21.841Z,11184.00
2019-05-02T07:30:18.021Z,11192.00
2019-05-02T07:31:18.053Z,11116.00
2019-05-02T07:32:19.193Z,11076.00
2019-05-02T07:33:18.128Z,11176.00
2019-05-02T07:34:18.154Z,11300.00
2019-05-02T07:35:19.248Z,11036.00
2019-05-02T07:36:18.219Z,10696.00
2019-05-02T07:37:18.253Z,10224.00
2019-05-02T07:38:20.338Z,10592.00
2019-05-02T07:39:18.318Z,10424.00
2019-05-02T07:40:18.851Z,10488.00
2019-05-02T07:41:18.386Z,10656.00
2019-05-02T07:42:18.419Z,11164.00
2019-05-02T07:43:21.416Z,11584.00
2019-05-02T07:44:18.486Z,11564.00
2019-05-02T07:45:18.521Z,11536.00
2019-05-02T07:46:21.105Z,11592.00
2019-05-02T07:47:18.598Z,12200.00
2019-05-02T07:48:19.083Z,12556.00
2019-05-02T07:49:20.724Z,12776.00
2019-05-02T07:50:18.689Z,12492.00
2019-05-02T07:51:21.347Z,12216.00
2019-05-02T07:52:18.760Z,11960.00
2019-05-02T07:53:18.794Z,11752.00
2019-05-02T07:54:19.374Z,11940.00
2019-05-02T07:55:18.870Z,12332.00
2019-05-02T07:56:19.077Z,12564.00
2019-05-02T07:57:18.932Z,12872.00
2019-05-02T07:58:18.965Z,12680.00
2019-05-02T07:59:23.305Z,12632.00
2019-05-02T08:00:19.036Z,13436.00
2019-05-02T08:01:19.070Z,13848.00
2019-05-02T08:02:20.261Z,14412.00
2019-05-02T08:03:19.139Z,14292.00
2019-05-02T08:04:19.176Z,14520.00
2019-05-02T08:05:21.530Z,14364.00
2019-05-02T08:06:19.245Z,14520.00
2019-05-02T08:07:21.290Z,13988.00
2019-05-02T08:08:19.315Z,14216.00
2019-05-02T08:09:19.351Z,14448.00
2019-05-02T08:10:22.150Z,14032.00
2019-05-02T08:11:19.421Z,13804.00
2019-05-02T08:12:19.459Z,13212.00
2019-05-02T08:13:19.525Z,13508.00
2019-05-02T08:14:19.527Z,13492.00
2019-05-02T08:15:19.564Z,13892.00
2019-05-02T08:16:22.393Z,13452.00
2019-05-02T08:17:19.634Z,12608.00
2019-05-02T08:18:19.671Z,12352.00
2019-05-02T08:19:19.707Z,12068.00
2019-05-02T08:20:21.222Z,12076.00
2019-05-02T08:21:19.781Z,12656.00
2019-05-02T08:22:19.815Z,13836.00
2019-05-02T08:23:20.558Z,14996.00
2019-05-02T08:24:19.886Z,16000.00
2019-05-02T08:25:19.923Z,16832.00
2019-05-02T08:26:21.797Z,15744.00
2019-05-02T08:27:22.875Z,15904.00
2019-05-02T08:28:20.031Z,17216.00
2019-05-02T08:29:23.473Z,17856.00
2019-05-02T08:30:20.103Z,18208.00
2019-05-02T08:31:21.032Z,18432.00
2019-05-02T08:32:20.176Z,18784.00
2019-05-02T08:33:20.214Z,18912.00
2019-05-02T08:34:20.281Z,19488.00
2019-05-02T08:35:20.286Z,20032.00
2019-05-02T08:36:20.323Z,20320.00
2019-05-02T08:37:20.359Z,20352.00
2019-05-02T08:38:20.395Z,20384.00
2019-05-02T08:39:20.434Z,19488.00
2019-05-02T08:40:20.472Z,18912.00
2019-05-02T08:41:21.473Z,18688.00
2019-05-02T08:42:20.544Z,18560.00
2019-05-02T08:43:20.582Z,18976.00
2019-05-02T08:44:20.624Z,19744.00
2019-05-02T08:45:20.656Z,20512.00
2019-05-02T08:46:20.693Z,21216.00
2019-05-02T08:47:23.809Z,22080.00
2019-05-02T08:48:22.710Z,21824.00
2019-05-02T08:49:20.806Z,20640.00
2019-05-02T08:50:20.842Z,20928.00
2019-05-02T08:51:20.879Z,21856.00
2019-05-02T08:52:20.918Z,21568.00
2019-05-02T08:53:22.296Z,21504.00
2019-05-02T08:54:20.992Z,21440.00
2019-05-02T08:55:21.031Z,21312.00
2019-05-02T08:56:21.651Z,21152.00
2019-05-02T08:57:23.607Z,20608.00
2019-05-02T08:58:21.144Z,20448.00
2019-05-02T08:59:24.544Z,20736.00
2019-05-02T09:00:21.222Z,21088.00
2019-05-02T09:01:34.297Z,21696.00
2019-05-02T09:02:25.891Z,22176.00
2019-05-02T09:03:21.337Z,22720.00
2019-05-02T09:04:24.186Z,22208.00
2019-05-02T09:05:21.414Z,21632.00
2019-05-02T09:06:22.652Z,21088.00
2019-05-02T09:07:21.532Z,22048.00
2019-05-02T09:08:21.534Z,22592.00
2019-05-02T09:09:22.733Z,22592.00
2019-05-02T09:10:21.604Z,22848.00
2019-05-02T09:12:12.256Z,23200.00
2019-05-02T09:13:04.245Z,22976.00
2019-05-02T09:14:04.272Z,22976.00
2019-05-02T09:15:04.316Z,23104.00
2019-05-02T09:16:05.957Z,23776.00
2019-05-02T09:17:08.899Z,24224.00
2019-05-02T09:18:04.428Z,24288.00
2019-05-02T09:19:04.464Z,23936.00
2019-05-02T09:20:10.620Z,24160.00
2019-05-02T09:21:04.543Z,24512.00
2019-05-02T09:22:07.484Z,24896.00
2019-05-02T09:23:04.618Z,25280.00
2019-05-02T09:24:08.372Z,25152.00
2019-05-02T09:25:04.700Z,24576.00
2019-05-02T09:26:57.365Z,25344.00
2019-05-02T09:27:57.403Z,25088.00
2019-05-02T09:29:01.643Z,25632.00
2019-05-02T09:29:57.481Z,26336.00
2019-05-02T09:31:02.293Z,26208.00
2019-05-02T09:31:57.559Z,26304.00
2019-05-02T09:33:02.847Z,25440.00
2019-05-02T09:33:57.636Z,25408.00
2019-05-02T09:35:02.283Z,25824.00
2019-05-02T09:35:57.717Z,27488.00
2019-05-02T09:37:55.349Z,28128.00
2019-05-02T09:39:37.942Z,28032.00
2019-05-02T09:40:37.975Z,27776.00
2019-05-02T09:43:13.146Z,28928.00
2019-05-02T09:44:18.713Z,29056.00
2019-05-02T09:45:15.908Z,29152.00
2019-05-02T09:46:16.687Z,29728.00
2019-05-02T09:47:13.303Z,29568.00
2019-05-02T09:48:17.230Z,29664.00
2019-05-02T09:49:16.383Z,30432.00
2019-05-02T09:50:13.423Z,30848.00
2019-05-02T09:51:17.449Z,32256.00
2019-05-02T09:52:13.500Z,33664.00
2019-05-02T09:53:20.931Z,35648.00
2019-05-02T09:54:13.579Z,41056.00
2019-05-02T09:55:13.620Z,54272.00
2019-05-02T09:56:13.661Z,60448.00
2019-05-02T09:57:13.701Z,51360.00
2019-05-02T09:58:19.650Z,38752.00
2019-05-02T09:59:26.795Z,39168.00
2019-05-02T10:00:13.822Z,47552.00
2019-05-02T10:01:13.862Z,55136.00
2019-05-02T10:02:13.901Z,69984.00
2019-05-02T10:03:13.942Z,64640.00
2019-05-02T10:04:13.984Z,47456.00
2019-05-02T10:05:14.025Z,55552.00
2019-05-02T10:06:18.254Z,62592.00
2019-05-02T10:07:15.464Z,77760.00
2019-05-02T10:08:14.245Z,76928.00
2019-05-02T10:09:14.191Z,67776.00
2019-05-02T10:10:14.231Z,59616.00
2019-05-02T10:11:17.035Z,60032.00
2019-05-02T10:12:14.326Z,63840.00
2019-05-02T10:13:14.375Z,70272.00
2019-05-02T10:14:14.403Z,72032.00
2019-05-02T10:15:14.475Z,69184.00
2019-05-02T10:16:17.963Z,54432.00
2019-05-02T10:17:14.534Z,51904.00
2019-05-02T10:18:14.892Z,55232.00
2019-05-02T10:19:14.640Z,59264.00
2019-05-02T10:20:14.665Z,58624.00
2019-05-02T10:22:14.776Z,56192.00
2019-05-02T10:23:19.610Z,57600.00
2019-05-02T10:24:14.840Z,65824.00
2019-05-02T10:25:14.884Z,68352.00
2019-05-02T10:26:20.099Z,59680.00
2019-05-02T10:27:14.972Z,51584.00
2019-05-02T10:28:15.017Z,51616.00
2019-05-02T10:29:15.061Z,52288.00
2019-05-02T10:30:15.797Z,62496.00
2019-05-02T10:31:15.153Z,54848.00
2019-05-02T10:32:16.687Z,59936.00
2019-05-02T10:33:15.237Z,46656.00
2019-05-02T10:34:17.606Z,51200.00
2019-05-02T10:35:15.325Z,50400.00
2019-05-02T10:36:19.514Z,49088.00
2019-05-02T10:37:15.418Z,50272.00
2019-05-02T10:38:19.474Z,52480.00
2019-05-02T10:39:15.929Z,50464.00
2019-05-02T10:40:17.091Z,45792.00
2019-05-02T10:41:15.591Z,52320.00
2019-05-02T10:42:15.635Z,53984.00
2019-05-02T10:43:15.679Z,48928.00
2019-05-02T10:44:15.724Z,63648.00
2019-05-02T10:45:16.816Z,77408.00
2019-05-02T10:46:15.813Z,86048.00
2019-05-02T10:47:16.690Z,81440.00
2019-05-02T10:48:27.493Z,84672.00
2019-05-02T10:49:15.944Z,89152.00
2019-05-02T10:50:15.991Z,83552.00
2019-05-02T10:51:16.037Z,80416.00
2019-05-02T10:52:16.079Z,77888.00
2019-05-02T10:53:16.351Z,75744.00
2019-05-02T10:54:16.172Z,82656.00
2019-05-02T10:56:16.263Z,75552.00
2019-05-02T10:57:16.310Z,77440.00
2019-05-02T10:58:16.354Z,76896.00
2019-05-02T10:59:16.401Z,83168.00
2019-05-02T11:00:16.451Z,87296.00
2019-05-02T11:01:16.502Z,92128.00
2019-05-02T11:02:16.541Z,99200.00
2019-05-02T11:03:16.638Z,105760.00
2019-05-02T11:04:16.637Z,106432.00
2019-05-02T11:05:21.447Z,90976.00
2019-05-02T11:06:16.729Z,96704.00
2019-05-02T11:07:21.524Z,100864.00
2019-05-02T11:09:21.803Z,86432.00
2019-05-02T11:10:16.922Z,101056.00
2019-05-02T11:11:16.970Z,115392.00
2019-05-02T11:12:23.950Z,112384.00
2019-05-02T11:13:17.175Z,107328.00
2019-05-02T11:14:17.114Z,26912.00
2019-05-02T11:15:17.164Z,45600.00
2019-05-02T11:16:17.212Z,24352.00
2019-05-02T11:17:17.985Z,24224.00
2019-05-02T11:18:17.311Z,24736.00
2019-05-02T11:19:17.386Z,25632.00
2019-05-02T11:20:17.409Z,29920.00
2019-05-02T11:21:18.905Z,76224.00
2019-05-02T11:22:17.502Z,47392.00
2019-05-02T11:23:17.547Z,108256.00
2019-05-02T11:24:17.594Z,118272.00
2019-05-02T11:25:17.640Z,115072.00
2019-05-02T11:26:21.454Z,91840.00
2019-05-02T11:27:17.752Z,96960.00
2019-05-02T11:28:17.780Z,57632.00
2019-05-02T11:29:17.828Z,42592.00
2019-05-02T11:30:22.387Z,24224.00
2019-05-02T11:31:17.922Z,24160.00
2019-05-02T11:32:17.972Z,24160.00
2019-05-02T11:33:18.038Z,22784.00
2019-05-02T11:34:18.100Z,19744.00
2019-05-02T11:35:18.178Z,18208.00
2019-05-02T11:36:18.155Z,19456.00
2019-05-02T11:37:18.253Z,19904.00
2019-05-02T11:38:44.382Z,17952.00
2019-05-02T11:39:25.872Z,18080.00
2019-05-02T11:40:18.339Z,19040.00
2019-05-02T11:41:18.384Z,20928.00
2019-05-02T11:42:25.654Z,24832.00
2019-05-02T11:43:18.471Z,55808.00
2019-05-02T11:44:18.516Z,33216.00
2019-05-02T11:45:18.987Z,37184.00
2019-05-02T11:46:18.625Z,58304.00
2019-05-02T11:47:24.830Z,99712.00
2019-05-02T11:48:19.834Z,75328.00
2019-05-02T11:49:18.731Z,101536.00
2019-05-02T11:50:18.775Z,100160.00
2019-05-02T11:51:18.818Z,61568.00
2019-05-02T11:52:18.866Z,79168.00
2019-05-02T11:53:29.340Z,125120.00
2019-05-02T11:54:18.951Z,121760.00
2019-05-02T11:55:23.807Z,98240.00
2019-05-02T11:56:19.042Z,88832.00
2019-05-02T11:57:21.039Z,86208.00
2019-05-02T11:58:19.142Z,64608.00
2019-05-02T11:59:20.784Z,57152.00
2019-05-02T12:00:19.225Z,32672.00
2019-05-02T12:01:32.770Z,24896.00
2019-05-02T12:02:19.316Z,25792.00
2019-05-02T12:03:19.364Z,26432.00
2019-05-02T12:04:21.389Z,28160.00
2019-05-02T12:05:19.480Z,32416.00
2019-05-02T12:06:19.879Z,40800.00
2019-05-02T12:07:19.547Z,92640.00
2019-05-02T12:08:19.591Z,67968.00
2019-05-02T12:09:19.637Z,46720.00
2019-05-02T12:10:21.526Z,47584.00
2019-05-02T12:11:19.724Z,44160.00
2019-05-02T12:12:19.771Z,45888.00
2019-05-02T12:13:19.816Z,39008.00
2019-05-02T12:14:19.861Z,38560.00
2019-05-02T12:15:21.688Z,33248.00
2019-05-02T12:16:19.950Z,31968.00
2019-05-02T12:17:21.672Z,33120.00
2019-05-02T12:18:22.527Z,35232.00
2019-05-02T12:19:20.083Z,78272.00
2019-05-02T12:20:20.127Z,38720.00
2019-05-02T12:21:20.171Z,46688.00
2019-05-02T12:22:20.214Z,57888.00
2019-05-02T12:23:22.468Z,47840.00
2019-05-02T12:24:22.057Z,31904.00
2019-05-02T12:25:22.272Z,28032.00
2019-05-02T12:26:22.031Z,26880.00
2019-05-02T12:27:22.021Z,27680.00
2019-05-02T12:28:20.475Z,28992.00
2019-05-02T12:29:21.838Z,30144.00
2019-05-02T12:30:22.751Z,32544.00
2019-05-02T12:31:22.147Z,36960.00